Terminal Aerodrome Forecast
Issued by NWS

Home | Current Version | Previous Version | Text Only | Print | Product List | Glossary On
Versions: 1 2 3 4 5 6 7 8 9 10 11 12 13 14 15 16 17 18 19 20 21 22 23
000
FTUS43 KSGF 260000 AAA
TAFJLN
TAF AMD
KJLN 260031Z 2601/2624 03012KT 5SM -TSRA BR SCT060CB OVC080
     FM260400 36016G22KT 6SM -RADZ OVC008
     FM261000 36012KT P6SM OVC010
     FM261500 01012G18KT P6SM SKC=

USA.gov is the U.S. government's official web portal to all federal, state and local government web resources and services.